createdAt,value
2022-09-22T00:00:16.211Z,0.82
2022-09-22T00:05:10.367Z,0.60
2022-09-22T00:10:05.399Z,0.65
2022-09-22T00:14:59.701Z,0.70
2022-09-22T00:19:57.167Z,0.60
2022-09-22T00:24:51.511Z,0.60
2022-09-22T00:29:50.156Z,0.60
2022-09-22T00:34:44.081Z,0.70
2022-09-22T00:39:37.940Z,0.63
2022-09-22T00:44:37.840Z,1.02
2022-09-22T00:49:59.251Z,0.70
2022-09-22T00:54:55.285Z,0.80
2022-09-22T00:59:49.615Z,0.75
2022-09-22T01:04:44.464Z,0.88
2022-09-22T01:09:38.500Z,0.82
2022-09-22T01:14:49.498Z,0.65
2022-09-22T01:19:45.647Z,0.80
2022-09-22T01:24:45.303Z,0.77
2022-09-22T01:30:16.313Z,0.63
2022-09-22T01:35:33.846Z,0.50
2022-09-22T01:40:45.189Z,0.90
2022-09-22T01:45:41.873Z,0.70
2022-09-22T01:50:42.580Z,0.40
2022-09-22T01:55:42.058Z,0.55
2022-09-22T02:00:37.619Z,0.60
2022-09-22T02:05:38.419Z,0.55
2022-09-22T02:10:45.176Z,0.68
2022-09-22T02:15:56.674Z,0.60
2022-09-22T02:20:51.382Z,0.65
2022-09-22T02:25:46.580Z,0.52
2022-09-22T02:30:40.790Z,0.77
2022-09-22T02:35:36.515Z,0.47
2022-09-22T02:40:49.666Z,0.77
2022-09-22T02:45:52.470Z,0.70
2022-09-22T02:50:46.194Z,0.60
2022-09-22T02:55:40.591Z,0.60
2022-09-22T03:00:35.250Z,0.85
2022-09-22T03:05:28.951Z,0.57
2022-09-22T03:10:22.675Z,0.65
2022-09-22T03:15:16.912Z,0.70
2022-09-22T03:20:12.249Z,0.60
2022-09-22T03:25:12.533Z,0.73
2022-09-22T03:30:08.115Z,0.60
2022-09-22T03:35:01.999Z,0.70
2022-09-22T03:39:56.052Z,0.60
2022-09-22T03:44:51.171Z,0.65
2022-09-22T03:49:45.222Z,0.50
2022-09-22T03:54:39.408Z,0.75
2022-09-22T03:59:32.759Z,0.50
2022-09-22T04:04:26.838Z,0.60
2022-09-22T04:09:21.087Z,0.60
2022-09-22T04:14:15.483Z,0.70
2022-09-22T04:19:10.896Z,0.80
2022-09-22T04:24:08.436Z,0.70
2022-09-22T04:29:02.476Z,0.63
2022-09-22T04:33:55.952Z,0.73
2022-09-22T04:38:50.384Z,0.75
2022-09-22T04:43:43.794Z,0.88
2022-09-22T04:48:37.706Z,0.60
2022-09-22T04:53:32.239Z,1.00
2022-09-22T04:58:26.859Z,0.93
2022-09-22T05:03:22.323Z,0.90
2022-09-22T05:08:16.825Z,0.60
2022-09-22T05:13:10.259Z,1.23
2022-09-22T05:18:04.246Z,1.10
2022-09-22T05:22:58.712Z,1.38
2022-09-22T05:27:54.864Z,1.65
2022-09-22T05:32:49.775Z,1.23
2022-09-22T05:37:47.733Z,2.25
2022-09-22T05:42:48.075Z,1.73
2022-09-22T05:47:41.941Z,1.80
2022-09-22T05:52:36.910Z,1.60
2022-09-22T05:57:32.626Z,1.55
2022-09-22T06:02:30.160Z,1.33
2022-09-22T06:07:24.695Z,1.63
2022-09-22T06:12:22.913Z,1.42
2022-09-22T06:17:17.463Z,1.35
2022-09-22T06:22:15.695Z,1.38
2022-09-22T06:27:09.392Z,1.40
2022-09-22T06:32:03.947Z,1.10
2022-09-22T06:36:58.286Z,1.17
2022-09-22T06:41:52.486Z,1.80
2022-09-22T06:46:48.115Z,1.48
2022-09-22T06:51:42.224Z,1.40
2022-09-22T06:56:38.443Z,1.30
2022-09-22T07:01:32.125Z,1.13
2022-09-22T07:06:27.123Z,1.10
2022-09-22T07:11:24.102Z,0.93
2022-09-22T07:16:19.337Z,1.35
2022-09-22T07:21:16.363Z,1.25
2022-09-22T07:26:14.829Z,1.70
2022-09-22T07:31:10.671Z,1.30
2022-09-22T07:36:11.472Z,1.20
2022-09-22T07:41:07.699Z,1.25
2022-09-22T07:46:02.457Z,1.40
2022-09-22T07:51:00.980Z,1.30
2022-09-22T07:55:55.382Z,1.23
2022-09-22T08:00:49.521Z,1.33
2022-09-22T08:05:42.695Z,1.30
2022-09-22T08:10:37.012Z,1.33
2022-09-22T08:15:30.991Z,1.20
2022-09-22T08:20:26.840Z,1.02
2022-09-22T08:25:21.367Z,1.02
2022-09-22T08:30:16.084Z,0.88
2022-09-22T08:35:10.127Z,1.10
2022-09-22T08:40:05.198Z,0.98
2022-09-22T08:45:07.656Z,0.95
2022-09-22T08:50:19.610Z,0.98
2022-09-22T08:55:26.611Z,1.00
2022-09-22T09:00:20.750Z,1.45
2022-09-22T09:06:00.934Z,1.20
2022-09-22T09:11:12.659Z,1.00
2022-09-22T09:16:24.507Z,0.95
2022-09-22T09:21:18.619Z,0.77
2022-09-22T09:26:12.884Z,1.30
2022-09-22T09:31:26.834Z,1.10
2022-09-22T09:36:23.669Z,1.00
2022-09-22T09:41:32.118Z,1.48
2022-09-22T09:46:51.410Z,1.10
2022-09-22T09:51:50.960Z,1.10
2022-09-22T09:57:05.234Z,1.00
2022-09-22T10:01:59.076Z,1.08
2022-09-22T10:06:53.130Z,1.08
2022-09-22T10:11:58.342Z,1.10
2022-09-22T10:16:52.762Z,0.90
2022-09-22T10:21:46.896Z,1.00
2022-09-22T10:26:56.687Z,1.05
2022-09-22T10:32:17.459Z,1.00
2022-09-22T10:37:11.950Z,0.82
2022-09-22T10:42:13.393Z,0.80
2022-09-22T10:47:31.891Z,0.93
2022-09-22T10:52:39.699Z,1.00
2022-09-22T10:57:47.463Z,0.90
2022-09-22T11:03:03.145Z,0.88
2022-09-22T11:08:23.703Z,1.05
2022-09-22T11:13:47.820Z,0.82
2022-09-22T11:18:40.643Z,0.88
2022-09-22T11:23:45.704Z,0.90
2022-09-22T11:29:08.140Z,1.10
2022-09-22T11:34:18.621Z,1.23
2022-09-22T11:39:36.370Z,0.90
2022-09-22T11:44:37.007Z,1.00
2022-09-22T11:50:09.224Z,1.40
2022-09-22T11:55:27.736Z,1.15
2022-09-22T12:00:22.298Z,1.10
2022-09-22T12:05:32.150Z,1.20
2022-09-22T12:10:37.332Z,1.00
2022-09-22T12:21:37.693Z,1.75
2022-09-22T12:26:31.936Z,6.80
2022-09-22T12:31:37.931Z,4.80
2022-09-22T12:36:41.124Z,2.85
2022-09-22T12:41:48.833Z,3.83
2022-09-22T12:46:43.843Z,3.15
2022-09-22T12:51:38.207Z,2.95
2022-09-22T12:56:53.787Z,2.80
2022-09-22T13:01:47.488Z,2.90
2022-09-22T13:06:40.143Z,2.30
2022-09-22T13:12:09.992Z,2.67
2022-09-22T13:17:42.068Z,3.35
2022-09-22T13:22:37.113Z,2.58
2022-09-22T13:27:29.809Z,1.42
2022-09-22T13:32:27.416Z,1.63
2022-09-22T13:37:23.595Z,1.95
2022-09-22T13:42:35.376Z,1.52
2022-09-22T13:47:29.715Z,1.50
2022-09-22T13:52:31.116Z,1.20
2022-09-22T13:57:30.576Z,1.60
2022-09-22T14:02:30.636Z,1.27
2022-09-22T14:07:28.484Z,1.40
2022-09-22T14:12:23.476Z,1.02
2022-09-22T14:17:22.386Z,1.50
2022-09-22T14:22:28.881Z,1.38
2022-09-22T14:27:43.377Z,1.02
2022-09-22T14:32:41.682Z,1.10
2022-09-22T14:37:42.013Z,0.95
2022-09-22T14:42:35.344Z,1.08
2022-09-22T14:47:30.486Z,0.82
2022-09-22T14:52:33.543Z,1.35
2022-09-22T14:57:27.602Z,1.17
2022-09-22T15:02:33.563Z,1.02
2022-09-22T15:07:29.231Z,0.90
2022-09-22T15:12:49.357Z,0.95
2022-09-22T15:18:03.259Z,1.10
2022-09-22T15:22:56.911Z,1.02
2022-09-22T15:27:53.459Z,1.60
2022-09-22T15:32:48.567Z,1.35
2022-09-22T15:37:42.750Z,0.77
2022-09-22T15:42:41.991Z,0.90
2022-09-22T15:48:09.244Z,1.08
2022-09-22T15:53:03.528Z,0.80
2022-09-22T15:58:09.023Z,1.33
2022-09-22T16:03:02.945Z,0.80
2022-09-22T16:07:57.939Z,0.90
2022-09-22T16:12:52.734Z,1.48
2022-09-22T16:17:47.234Z,1.40
2022-09-22T16:22:41.515Z,1.20
2022-09-22T16:27:37.115Z,1.20
2022-09-22T16:32:33.330Z,1.30
2022-09-22T16:37:27.581Z,1.40
2022-09-22T16:42:23.909Z,1.65
2022-09-22T16:47:23.477Z,1.60
2022-09-22T16:52:19.163Z,2.33
2022-09-22T16:57:13.505Z,2.13
2022-09-22T17:02:07.449Z,1.85
2022-09-22T17:07:01.816Z,1.55
2022-09-22T17:11:58.621Z,1.83
2022-09-22T17:16:58.378Z,1.63
2022-09-22T17:21:55.500Z,1.70
2022-09-22T17:26:58.200Z,1.25
2022-09-22T17:31:57.159Z,1.80
2022-09-22T17:36:51.954Z,1.38
2022-09-22T17:41:48.443Z,1.38
2022-09-22T17:47:02.153Z,1.63
2022-09-22T17:52:13.900Z,1.20
2022-09-22T17:57:09.043Z,1.23
2022-09-22T18:02:04.093Z,1.30
2022-09-22T18:06:58.738Z,1.42
2022-09-22T18:11:52.142Z,1.45
2022-09-22T18:16:45.939Z,1.52
2022-09-22T18:21:40.244Z,1.40
2022-09-22T18:26:38.971Z,2.17
2022-09-22T18:31:32.838Z,1.50
2022-09-22T18:36:26.808Z,1.75
2022-09-22T18:41:20.827Z,1.33
2022-09-22T18:46:20.669Z,1.85
2022-09-22T18:51:15.253Z,1.77
2022-09-22T18:56:28.370Z,1.40
2022-09-22T19:01:24.428Z,1.80
2022-09-22T19:06:17.228Z,1.55
2022-09-22T19:11:14.899Z,1.90
2022-09-22T19:16:10.546Z,1.80
2022-09-22T19:21:05.510Z,1.70
2022-09-22T19:26:00.658Z,1.85
2022-09-22T19:30:53.404Z,2.17
2022-09-22T19:35:47.924Z,1.85
2022-09-22T19:40:41.842Z,2.00
2022-09-22T19:45:36.339Z,2.22
2022-09-22T19:50:30.102Z,1.60
2022-09-22T19:55:24.504Z,1.95
2022-09-22T20:00:18.930Z,2.53
2022-09-22T20:05:22.895Z,1.60
2022-09-22T20:10:17.890Z,1.90
2022-09-22T20:15:16.236Z,1.85
2022-09-22T20:20:10.371Z,2.17
2022-09-22T20:25:05.554Z,1.98
2022-09-22T20:29:59.637Z,2.03
2022-09-22T20:34:54.968Z,1.98
2022-09-22T20:39:49.366Z,2.28
2022-09-22T20:44:43.220Z,1.90
2022-09-22T20:49:38.323Z,2.13
2022-09-22T20:54:32.245Z,2.40
2022-09-22T20:59:25.076Z,1.83
2022-09-22T21:04:19.446Z,2.00
2022-09-22T21:09:32.184Z,2.22
2022-09-22T21:14:26.459Z,2.00
2022-09-22T21:19:21.990Z,2.00
2022-09-22T21:24:21.237Z,1.95
2022-09-22T21:29:15.483Z,1.98
2022-09-22T21:34:10.035Z,1.70
2022-09-22T21:39:04.320Z,1.55
2022-09-22T21:43:58.263Z,1.80
2022-09-22T21:48:51.621Z,1.60
2022-09-22T21:53:46.103Z,1.67
2022-09-22T21:58:42.107Z,1.70
2022-09-22T22:03:37.417Z,2.00
2022-09-22T22:08:33.671Z,1.58
2022-09-22T22:13:30.422Z,1.77
2022-09-22T22:18:24.597Z,1.50
2022-09-22T22:23:18.108Z,1.45
2022-09-22T22:28:12.437Z,1.63
2022-09-22T22:33:08.702Z,1.85
2022-09-22T22:38:02.861Z,1.70
2022-09-22T22:42:56.706Z,1.27
2022-09-22T22:47:50.159Z,1.55
2022-09-22T22:52:46.964Z,1.45
2022-09-22T22:57:40.910Z,1.50
2022-09-22T23:02:35.131Z,1.55
2022-09-22T23:07:28.932Z,1.85
2022-09-22T23:12:23.347Z,1.50
2022-09-22T23:17:17.499Z,1.48
2022-09-22T23:22:10.604Z,1.70
2022-09-22T23:27:05.369Z,1.75
2022-09-22T23:31:59.796Z,1.58
2022-09-22T23:36:53.717Z,1.23
2022-09-22T23:41:51.139Z,1.50
2022-09-22T23:46:45.292Z,1.55
2022-09-22T23:51:39.093Z,1.73
2022-09-22T23:56:32.795Z,1.45
